Portada
METAR-TAF:

METAR-TAF

Aeroports :

General Santos, Filipines

latitud: 06-03-29N, longitud: 125-05-46E, altitud: 154 m

Observació

L'informe es va fer fa 1 hora i 20 minuts, a les 09:00 UTC
Vent 10 kt del Sud/Sud-Est
Temperatura 29°C
Humitat 74%
Pressió 1010 hPa
Visibilitat 10 km o més
Escasses núvols a una alçada de 1800 ft, Cumulonimbus.
xàfecs en les proximitats

METAR: RPMR 080900Z 16010KT 9999 VCSH FEW018CB 29/24 Q1010 NOSIG RMK A2983 CB/VCSH W

Hora: 18:20 (10:20 UTC)

Pronòstic

L'informe es va fer fa 5 hores i 20 minuts, a les 05:00 UTC
Pronòstic vàlid del 08 a les 06 UTC al 09 a les 06 UTC
Vent 6 kt del Sud/Sud-Est
Temporalment
l' 08 a les 06 UTC al 08 a les 12 UTC
Vent 12 kt del Nord
Escasses núvols a una alçada de 1700 ft, Cumulonimbus.
Núvols disperses a una alçada de 1800 ft
Cel ennuvolat a una alçada de 25000 ft

TAF: RPMR 080500Z 0806/0906 16006KT 9999FEW018 TEMPO 0806/0812 36012KT FEW017CB SCT018 BKN250

Observacions i pronòstics meteorològics de més de 4000 aeroports (METAR i TAF).

Les estacions disponibles són els punts grocs i vermells al mapa.

Posi el ratolí al punt desitjat per veure el nom de l'estació.

Feu clic per veure les observacions i els pronòstics meteorològics.

Per canviar el mapa: feu clic els botons verds amb una creu de color negre per apropar; al botó verd amb un guió per allunyar la imatge; o en les fletxes verdes per a mapes adjacents.


METAR-TAF: